Argus, CA

8:14 AM PST on December 06, 2016 (GMT -0800)
China Lake NAWS | | Change Station
Active Advisory: Wind Advisory

Elev 2283 ft 35.69 °N, 117.69 °W | Updated 18 minutes ago

Mostly Cloudy
Mostly Cloudy
46 °F
Feels Like 44 °F
N
5
Wind Variable Wind from Variable

Today
High -- | Low -- °F
--% Chance of Precip.
Yesterday
High -- | Low -- °F
Precip. -- in
Pressure 29.86 in
Visibility 10.0 miles
Clouds Mostly Cloudy 25000 ft
Mostly Cloudy 28000 ft
Windchill 44 °F
Dew Point 17 °F
Humidity 31%
Rainfall 0.00 in
Snow Depth Not available.
6:45 AM 4:35 PM
Waxing Crescent, 43% visible
METAR KNID 061556Z VRB04KT 10SM BKN250 BKN280 08/M08 A2985 RMK AO2 SLP111 T00781083 $
Pressure 29.86 in
Visibility 10.0 miles
Clouds Mostly Cloudy 25000 ft
Mostly Cloudy 28000 ft
Windchill 44 °F
Dew Point 17 °F
Humidity 31%
Rainfall 0.00 in
Snow Depth Not available.
6:45 AM 4:35 PM
Waxing Crescent, 43% visible
METAR KNID 061556Z VRB04KT 10SM BKN250 BKN280 08/M08 A2985 RMK AO2 SLP111 T00781083 $

10-Day Weather Forecast

Almanac

Astronomy

Dec. 06, 2016 Rise Set
Actual Time
Civil Twilight
Nautical Twilight
Astronomical Twilight
Moon
Length of Visible Light
Length of Day
Tomorrow will be .
, % of the Moon is Illuminated

Today's Extremes

State Highs State Lows

Community

WunderPhotos

Upload Photos

1,955,969 photos uploaded!

WunderBlog® & News

Nearby

Air Quality

  Air Quality AQ Index Pollutant
Not available.

Snow Depth

Station Depth Elevation

Earthquake Activity

City Distance Mag. Time & Date
Minimum magnitude displayed is 2.5.

Coastal Water Temperatures

Place Temperature

Stations

Nearby Weather Stations

Station Location Temp. Windchill Dew Point Humidity Wind Precip. Elev Updated Type
                   

Watches & Warnings

Wind Advisory
Issued: 1:50 AM PST Dec. 6, 2016 – National Weather Service

... Wind Advisory in effect from 10 am this morning to 10 PM PST
this evening...

The National Weather Service in Las Vegas has issued a Wind
Advisory... which is in effect from 10 am this morning to 10 PM
PST this evening.

* Timing... winds will increase this morning and will be strong from
late this morning through this afternoon and much of this evening
before decreasing by midnight.

* Winds... west winds 25 to 35 mph with gusts to 45 mph.

* Impacts... gusty winds can create hazardous driving conditions due
to cross winds and blowing dust. Unsecured objects or temporary
structures may be damaged.

Precautionary/preparedness actions...

A Wind Advisory means strong winds gusting over 40 mph can make
driving difficult... especially for high profile vehicles. Use
extra caution.